sensor_id;sensor_type;location;lat;lon;timestamp;pressure;altitude;pressure_sealevel;temperature;humidity
35878;BME280;21982;49.804;24.072;2023-03-20T00:00:49;97242.66;;;6.01;60.38
35878;BME280;21982;49.804;24.072;2023-03-20T00:03:15;96999.94;;;4.37;60.23
35878;BME280;21982;49.804;24.072;2023-03-20T00:05:41;97107.09;;;5.08;60.46
35878;BME280;21982;49.804;24.072;2023-03-20T00:08:07;97222.69;;;5.75;60.61
35878;BME280;21982;49.804;24.072;2023-03-20T00:13:21;97023.41;;;4.47;60.54
35878;BME280;21982;49.804;24.072;2023-03-20T00:15:48;97180.03;;;5.30;61.24
35878;BME280;21982;49.804;24.072;2023-03-20T00:18:19;97271.56;;;5.93;60.86
35878;BME280;21982;49.804;24.072;2023-03-20T00:20:48;97182.91;;;5.11;61.29
35878;BME280;21982;49.804;24.072;2023-03-20T00:23:14;97135.13;;;4.99;61.41
35878;BME280;21982;49.804;24.072;2023-03-20T00:25:41;97221.81;;;5.50;61.26
35878;BME280;21982;49.804;24.072;2023-03-20T00:28:34;97268.03;;;5.77;61.09
35878;BME280;21982;49.804;24.072;2023-03-20T00:31:04;97265.06;;;5.71;61.26
35878;BME280;21982;49.804;24.072;2023-03-20T00:33:31;97273.09;;;5.70;62.01
35878;BME280;21982;49.804;24.072;2023-03-20T00:35:56;97239.63;;;5.38;61.70
35878;BME280;21982;49.804;24.072;2023-03-20T00:38:29;97260.59;;;5.64;61.91
35878;BME280;21982;49.804;24.072;2023-03-20T00:40:54;97246.41;;;5.49;61.88
35878;BME280;21982;49.804;24.072;2023-03-20T00:43:22;97001.34;;;3.97;62.13
35878;BME280;21982;49.804;24.072;2023-03-20T00:45:48;97098.34;;;4.57;61.96
35878;BME280;21982;49.804;24.072;2023-03-20T00:48:14;97023.69;;;4.10;62.12
35878;BME280;21982;49.804;24.072;2023-03-20T00:50:40;97151.50;;;4.67;62.26
35878;BME280;21982;49.804;24.072;2023-03-20T00:53:09;97096.81;;;4.47;62.05
35878;BME280;21982;49.804;24.072;2023-03-20T00:55:35;97018.78;;;3.89;62.03
35878;BME280;21982;49.804;24.072;2023-03-20T00:58:02;97247.56;;;5.46;62.29
35878;BME280;21982;49.804;24.072;2023-03-20T01:00:40;97238.69;;;5.47;62.25
35878;BME280;21982;49.804;24.072;2023-03-20T01:03:12;97088.16;;;4.54;62.34
35878;BME280;21982;49.804;24.072;2023-03-20T01:05:39;97237.53;;;5.42;62.56
35878;BME280;21982;49.804;24.072;2023-03-20T01:08:21;97232.13;;;5.43;62.42
35878;BME280;21982;49.804;24.072;2023-03-20T01:10:50;97144.66;;;4.75;62.40
35878;BME280;21982;49.804;24.072;2023-03-20T01:13:19;97242.41;;;5.36;62.96
35878;BME280;21982;49.804;24.072;2023-03-20T01:15:46;97239.44;;;5.31;62.96
35878;BME280;21982;49.804;24.072;2023-03-20T01:18:16;97183.84;;;5.02;62.55
35878;BME280;21982;49.804;24.072;2023-03-20T01:20:42;97194.50;;;5.00;63.14
35878;BME280;21982;49.804;24.072;2023-03-20T01:23:07;97230.53;;;5.24;62.99
35878;BME280;21982;49.804;24.072;2023-03-20T01:25:33;96997.53;;;3.66;62.95
35878;BME280;21982;49.804;24.072;2023-03-20T01:27:59;97236.09;;;5.21;63.31
35878;BME280;21982;49.804;24.072;2023-03-20T01:30:30;97227.91;;;5.24;63.22
35878;BME280;21982;49.804;24.072;2023-03-20T01:32:56;97224.28;;;5.17;63.23
35878;BME280;21982;49.804;24.072;2023-03-20T01:35:24;97031.97;;;3.97;63.39
35878;BME280;21982;49.804;24.072;2023-03-20T01:37:51;97229.19;;;5.12;63.34
35878;BME280;21982;49.804;24.072;2023-03-20T01:40:30;97224.59;;;5.14;63.44
35878;BME280;21982;49.804;24.072;2023-03-20T01:42:57;97124.47;;;4.41;63.49
35878;BME280;21982;49.804;24.072;2023-03-20T01:45:27;97177.66;;;4.77;63.66
35878;BME280;21982;49.804;24.072;2023-03-20T01:47:54;97215.78;;;4.97;63.64
35878;BME280;21982;49.804;24.072;2023-03-20T01:50:24;97221.56;;;5.01;63.80
35878;BME280;21982;49.804;24.072;2023-03-20T01:53:08;97128.06;;;4.40;63.84
35878;BME280;21982;49.804;24.072;2023-03-20T01:55:34;97164.88;;;4.56;64.13
35878;BME280;21982;49.804;24.072;2023-03-20T01:58:06;97108.09;;;4.21;64.13
35878;BME280;21982;49.804;24.072;2023-03-20T02:00:33;97221.81;;;4.90;63.94
35878;BME280;21982;49.804;24.072;2023-03-20T02:02:59;97052.19;;;3.87;64.22
35878;BME280;21982;49.804;24.072;2023-03-20T02:05:25;97216.03;;;4.86;64.37
35878;BME280;21982;49.804;24.072;2023-03-20T02:08:04;97067.66;;;3.98;63.95
35878;BME280;21982;49.804;24.072;2023-03-20T02:10:34;97219.81;;;4.84;64.60
35878;BME280;21982;49.804;24.072;2023-03-20T02:13:02;97196.75;;;4.69;64.02
35878;BME280;21982;49.804;24.072;2023-03-20T02:15:35;97221.97;;;4.88;64.16
35878;BME280;21982;49.804;24.072;2023-03-20T02:18:01;97120.69;;;4.18;64.67
35878;BME280;21982;49.804;24.072;2023-03-20T02:35:07;96892.94;;;2.95;64.38
35878;BME280;21982;49.804;24.072;2023-03-20T02:40:29;97187.63;;;4.74;64.34
35878;BME280;21982;49.804;24.072;2023-03-20T02:43:13;97216.22;;;4.85;64.21
35878;BME280;21982;49.804;24.072;2023-03-20T02:45:58;97209.63;;;4.81;64.22
35878;BME280;21982;49.804;24.072;2023-03-20T02:48:55;97205.31;;;4.71;64.50
35878;BME280;21982;49.804;24.072;2023-03-20T02:51:58;97166.34;;;4.33;64.21
35878;BME280;21982;49.804;24.072;2023-03-20T02:54:53;97206.53;;;4.59;64.79
35878;BME280;21982;49.804;24.072;2023-03-20T02:57:36;97195.16;;;4.51;64.55
35878;BME280;21982;49.804;24.072;2023-03-20T03:00:13;97046.81;;;3.53;64.62
35878;BME280;21982;49.804;24.072;2023-03-20T03:05:52;97198.94;;;4.30;65.22
35878;BME280;21982;49.804;24.072;2023-03-20T03:08:21;97160.69;;;4.02;65.72
35878;BME280;21982;49.804;24.072;2023-03-20T03:10:52;97070.97;;;3.47;65.61
35878;BME280;21982;49.804;24.072;2023-03-20T03:13:25;97084.00;;;3.39;65.87
35878;BME280;21982;49.804;24.072;2023-03-20T03:15:53;97173.66;;;4.03;65.66
35878;BME280;21982;49.804;24.072;2023-03-20T03:18:23;97192.41;;;4.17;66.13
35878;BME280;21982;49.804;24.072;2023-03-20T03:20:55;97196.03;;;4.16;66.03
35878;BME280;21982;49.804;24.072;2023-03-20T03:23:30;96889.88;;;2.19;65.67
35878;BME280;21982;49.804;24.072;2023-03-20T03:25:58;97166.16;;;3.91;65.70
35878;BME280;21982;49.804;24.072;2023-03-20T03:28:37;97195.13;;;4.07;66.18
35878;BME280;21982;49.804;24.072;2023-03-20T03:31:07;97056.91;;;3.12;66.29
35878;BME280;21982;49.804;24.072;2023-03-20T03:33:35;97023.13;;;3.01;66.14
35878;BME280;21982;49.804;24.072;2023-03-20T03:38:53;97191.53;;;4.08;66.14
35878;BME280;21982;49.804;24.072;2023-03-20T03:41:30;97190.72;;;4.08;66.68
35878;BME280;21982;49.804;24.072;2023-03-20T03:44:28;97055.19;;;3.21;66.46
35878;BME280;21982;49.804;24.072;2023-03-20T03:47:09;97184.44;;;4.00;66.52
35878;BME280;21982;49.804;24.072;2023-03-20T03:49:40;97188.31;;;3.96;67.03
35878;BME280;21982;49.804;24.072;2023-03-20T03:52:11;97181.88;;;3.91;66.57
35878;BME280;21982;49.804;24.072;2023-03-20T03:54:43;97157.34;;;3.74;66.33
35878;BME280;21982;49.804;24.072;2023-03-20T03:57:11;97185.22;;;3.83;66.58
35878;BME280;21982;49.804;24.072;2023-03-20T03:59:41;97153.66;;;3.67;67.22
35878;BME280;21982;49.804;24.072;2023-03-20T04:02:08;97146.44;;;3.51;66.99
35878;BME280;21982;49.804;24.072;2023-03-20T04:04:41;97188.81;;;3.82;67.36
35878;BME280;21982;49.804;24.072;2023-03-20T04:07:07;97013.75;;;2.81;67.08
35878;BME280;21982;49.804;24.072;2023-03-20T04:09:33;96972.22;;;2.50;67.14
35878;BME280;21982;49.804;24.072;2023-03-20T04:11:58;97009.56;;;2.70;67.24
35878;BME280;21982;49.804;24.072;2023-03-20T04:14:24;97062.53;;;2.90;67.15
35878;BME280;21982;49.804;24.072;2023-03-20T04:16:49;97143.78;;;3.61;67.39
35878;BME280;21982;49.804;24.072;2023-03-20T04:19:15;97058.91;;;3.00;67.80
35878;BME280;21982;49.804;24.072;2023-03-20T04:21:41;97152.22;;;3.55;67.14
35878;BME280;21982;49.804;24.072;2023-03-20T04:24:06;97177.22;;;3.67;67.44
35878;BME280;21982;49.804;24.072;2023-03-20T04:26:32;97082.84;;;3.06;68.11
35878;BME280;21982;49.804;24.072;2023-03-20T04:28:57;97178.88;;;3.68;67.43
35878;BME280;21982;49.804;24.072;2023-03-20T04:31:23;97094.19;;;3.14;67.92
35878;BME280;21982;49.804;24.072;2023-03-20T04:33:48;96865.34;;;1.84;67.62
35878;BME280;21982;49.804;24.072;2023-03-20T04:36:14;97057.84;;;2.93;67.71
35878;BME280;21982;49.804;24.072;2023-03-20T04:38:40;97114.59;;;3.38;67.46
35878;BME280;21982;49.804;24.072;2023-03-20T04:41:05;97115.03;;;3.51;67.43
35878;BME280;21982;49.804;24.072;2023-03-20T04:43:31;97179.78;;;3.94;67.46
35878;BME280;21982;49.804;24.072;2023-03-20T04:45:56;97176.19;;;3.95;67.95
35878;BME280;21982;49.804;24.072;2023-03-20T04:48:22;97090.31;;;3.46;67.99
35878;BME280;21982;49.804;24.072;2023-03-20T04:50:47;96926.44;;;2.46;67.87
35878;BME280;21982;49.804;24.072;2023-03-20T04:53:17;97176.28;;;4.03;67.63
35878;BME280;21982;49.804;24.072;2023-03-20T04:56:06;97187.41;;;4.06;67.57
35878;BME280;21982;49.804;24.072;2023-03-20T04:58:32;97186.44;;;4.07;67.70
35878;BME280;21982;49.804;24.072;2023-03-20T05:00:59;97185.84;;;4.13;67.47
35878;BME280;21982;49.804;24.072;2023-03-20T05:03:25;97161.06;;;4.07;67.64
35878;BME280;21982;49.804;24.072;2023-03-20T05:05:51;97077.44;;;3.70;67.47
35878;BME280;21982;49.804;24.072;2023-03-20T05:08:18;97022.88;;;3.48;67.29
35878;BME280;21982;49.804;24.072;2023-03-20T05:11:06;97178.97;;;4.81;66.55
35878;BME280;21982;49.804;24.072;2023-03-20T05:13:33;97127.38;;;4.64;66.55
35878;BME280;21982;49.804;24.072;2023-03-20T05:15:58;97184.75;;;5.19;65.66
35878;BME280;21982;49.804;24.072;2023-03-20T05:18:23;96931.03;;;3.59;65.72
35878;BME280;21982;49.804;24.072;2023-03-20T05:20:49;97191.75;;;5.10;65.45
35878;BME280;21982;49.804;24.072;2023-03-20T05:23:15;97058.81;;;4.25;65.34
35878;BME280;21982;49.804;24.072;2023-03-20T05:25:40;97083.50;;;4.40;65.40
35878;BME280;21982;49.804;24.072;2023-03-20T05:28:06;97189.97;;;5.11;65.48
35878;BME280;21982;49.804;24.072;2023-03-20T05:30:31;97093.59;;;4.61;65.52
35878;BME280;21982;49.804;24.072;2023-03-20T05:32:57;97174.06;;;5.20;65.26
35878;BME280;21982;49.804;24.072;2023-03-20T05:35:22;96939.91;;;3.92;64.59
35878;BME280;21982;49.804;24.072;2023-03-20T05:37:47;97221.34;;;5.62;64.65
35878;BME280;21982;49.804;24.072;2023-03-20T05:40:14;97113.22;;;5.25;64.17
35878;BME280;21982;49.804;24.072;2023-03-20T05:42:40;97194.97;;;5.80;63.87
35878;BME280;21982;49.804;24.072;2023-03-20T05:45:06;97197.63;;;5.88;63.66
35878;BME280;21982;49.804;24.072;2023-03-20T05:47:32;97207.84;;;5.99;63.43
35878;BME280;21982;49.804;24.072;2023-03-20T05:49:57;97050.06;;;5.18;63.10
35878;BME280;21982;49.804;24.072;2023-03-20T05:52:23;97045.16;;;5.31;63.08
35878;BME280;21982;49.804;24.072;2023-03-20T05:54:50;97070.81;;;5.54;62.89
35878;BME280;21982;49.804;24.072;2023-03-20T05:57:15;97198.69;;;6.52;62.20
35878;BME280;21982;49.804;24.072;2023-03-20T05:59:41;97195.69;;;6.71;61.75
35878;BME280;21982;49.804;24.072;2023-03-20T06:02:07;96987.56;;;5.30;60.90
35878;BME280;21982;49.804;24.072;2023-03-20T06:04:32;97199.44;;;7.01;60.89
35878;BME280;21982;49.804;24.072;2023-03-20T06:06:59;97076.38;;;6.40;60.27
35878;BME280;21982;49.804;24.072;2023-03-20T06:09:24;96988.06;;;5.90;60.20
35878;BME280;21982;49.804;24.072;2023-03-20T06:11:50;97093.06;;;6.71;59.94
35878;BME280;21982;49.804;24.072;2023-03-20T06:14:15;97164.78;;;7.29;59.91
35878;BME280;21982;49.804;24.072;2023-03-20T06:16:40;97216.13;;;7.72;59.42
35878;BME280;21982;49.804;24.072;2023-03-20T06:19:06;97006.44;;;6.62;58.73
35878;BME280;21982;49.804;24.072;2023-03-20T06:21:31;97209.72;;;7.97;59.17
35878;BME280;21982;49.804;24.072;2023-03-20T06:23:57;97212.09;;;8.15;58.37
35878;BME280;21982;49.804;24.072;2023-03-20T06:26:24;97217.75;;;8.35;57.86
35878;BME280;21982;49.804;24.072;2023-03-20T06:28:50;97215.84;;;8.52;57.82
35878;BME280;21982;49.804;24.072;2023-03-20T06:31:15;96714.00;;;5.51;57.03
35878;BME280;21982;49.804;24.072;2023-03-20T06:33:41;97213.09;;;8.83;56.93
35878;BME280;21982;49.804;24.072;2023-03-20T06:36:06;97193.31;;;8.79;56.79
35878;BME280;21982;49.804;24.072;2023-03-20T06:38:32;97212.56;;;9.02;55.70
35878;BME280;21982;49.804;24.072;2023-03-20T06:40:57;97098.22;;;8.34;55.36
35878;BME280;21982;49.804;24.072;2023-03-20T06:43:22;97186.34;;;8.86;54.87
35878;BME280;21982;49.804;24.072;2023-03-20T06:45:49;97156.63;;;8.84;54.56
35878;BME280;21982;49.804;24.072;2023-03-20T06:48:15;97220.59;;;9.38;54.45
35878;BME280;21982;49.804;24.072;2023-03-20T06:50:46;97199.47;;;9.38;53.30
35878;BME280;21982;49.804;24.072;2023-03-20T06:53:13;97222.50;;;9.73;53.35
35878;BME280;21982;49.804;24.072;2023-03-20T06:55:38;97220.38;;;9.98;53.24
35878;BME280;21982;49.804;24.072;2023-03-20T06:58:03;97165.50;;;9.71;52.63
35878;BME280;21982;49.804;24.072;2023-03-20T07:00:31;97088.16;;;9.62;51.76
35878;BME280;21982;49.804;24.072;2023-03-20T07:02:58;97199.38;;;10.54;51.58
35878;BME280;21982;49.804;24.072;2023-03-20T07:05:24;97194.03;;;10.75;51.27
35878;BME280;21982;49.804;24.072;2023-03-20T07:07:50;97206.13;;;11.06;50.77
35878;BME280;21982;49.804;24.072;2023-03-20T07:10:23;97122.78;;;10.81;49.94
35878;BME280;21982;49.804;24.072;2023-03-20T07:13:24;97228.34;;;11.39;49.86
35878;BME280;21982;49.804;24.072;2023-03-20T07:15:50;97121.25;;;10.93;49.73
35878;BME280;21982;49.804;24.072;2023-03-20T07:18:17;97140.09;;;11.11;49.18
35878;BME280;21982;49.804;24.072;2023-03-20T07:20:45;96995.91;;;10.51;48.33
35878;BME280;21982;49.804;24.072;2023-03-20T07:23:14;96842.63;;;9.53;48.03
35878;BME280;21982;49.804;24.072;2023-03-20T07:25:39;97174.38;;;11.54;47.88
35878;BME280;21982;49.804;24.072;2023-03-20T07:28:05;97167.38;;;11.39;48.00
35878;BME280;21982;49.804;24.072;2023-03-20T07:30:31;97123.38;;;11.58;47.51
35878;BME280;21982;49.804;24.072;2023-03-20T07:32:57;97217.19;;;12.72;46.65
35878;BME280;21982;49.804;24.072;2023-03-20T07:35:22;97065.34;;;11.96;46.00
35878;BME280;21982;49.804;24.072;2023-03-20T07:37:48;97115.41;;;12.79;45.48
35878;BME280;21982;49.804;24.072;2023-03-20T07:40:21;97159.81;;;13.56;44.56
35878;BME280;21982;49.804;24.072;2023-03-20T07:42:46;97220.16;;;14.20;44.07
35878;BME280;21982;49.804;24.072;2023-03-20T07:45:14;97073.78;;;13.75;43.86
35878;BME280;21982;49.804;24.072;2023-03-20T07:47:43;97222.47;;;15.29;42.50
35878;BME280;21982;49.804;24.072;2023-03-20T07:50:08;97216.53;;;15.70;41.79
35878;BME280;21982;49.804;24.072;2023-03-20T07:52:34;97182.88;;;15.87;41.04
35878;BME280;21982;49.804;24.072;2023-03-20T07:55:00;97222.75;;;16.49;39.91
35878;BME280;21982;49.804;24.072;2023-03-20T07:57:26;97202.72;;;16.69;39.63
35878;BME280;21982;49.804;24.072;2023-03-20T07:59:51;97231.16;;;17.17;38.62
35878;BME280;21982;49.804;24.072;2023-03-20T08:02:17;97031.09;;;16.26;38.00
35878;BME280;21982;49.804;24.072;2023-03-20T08:04:43;97212.53;;;17.34;37.36
35878;BME280;21982;49.804;24.072;2023-03-20T08:07:09;97137.06;;;16.43;37.76
35878;BME280;21982;49.804;24.072;2023-03-20T08:09:35;97149.81;;;16.71;37.54
35878;BME280;21982;49.804;24.072;2023-03-20T08:12:03;97088.28;;;16.48;37.07
35878;BME280;21982;49.804;24.072;2023-03-20T08:14:32;96936.25;;;15.10;37.13
35878;BME280;21982;49.804;24.072;2023-03-20T08:16:58;97222.41;;;16.87;37.37
35878;BME280;21982;49.804;24.072;2023-03-20T08:19:23;97130.94;;;16.13;37.60
35878;BME280;21982;49.804;24.072;2023-03-20T08:21:49;97118.38;;;16.02;37.57
35878;BME280;21982;49.804;24.072;2023-03-20T08:24:16;97218.22;;;16.49;37.04
35878;BME280;21982;49.804;24.072;2023-03-20T08:26:42;97082.09;;;15.83;37.22
35878;BME280;21982;49.804;24.072;2023-03-20T08:29:08;96720.22;;;13.60;36.97
35878;BME280;21982;49.804;24.072;2023-03-20T08:31:34;96983.75;;;15.50;36.51
35878;BME280;21982;49.804;24.072;2023-03-20T08:33:59;97005.97;;;15.62;36.57
35878;BME280;21982;49.804;24.072;2023-03-20T08:36:25;97006.25;;;15.72;36.14
35878;BME280;21982;49.804;24.072;2023-03-20T08:38:51;96964.16;;;15.26;36.43
35878;BME280;21982;49.804;24.072;2023-03-20T08:41:18;96704.41;;;13.65;36.21
35878;BME280;21982;49.804;24.072;2023-03-20T08:43:43;97079.44;;;16.36;35.91
35878;BME280;21982;49.804;24.072;2023-03-20T08:46:09;97228.63;;;17.57;35.64
35878;BME280;21982;49.804;24.072;2023-03-20T08:48:35;97076.09;;;16.99;35.18
35878;BME280;21982;49.804;24.072;2023-03-20T08:51:01;97222.72;;;18.07;34.92
35878;BME280;21982;49.804;24.072;2023-03-20T08:53:26;97217.41;;;17.95;34.94
35878;BME280;21982;49.804;24.072;2023-03-20T08:55:52;97177.28;;;17.72;34.88
35878;BME280;21982;49.804;24.072;2023-03-20T08:58:19;97231.97;;;17.99;34.45
35878;BME280;21982;49.804;24.072;2023-03-20T09:00:45;97142.59;;;17.54;33.97
35878;BME280;21982;49.804;24.072;2023-03-20T09:03:16;97132.47;;;17.44;33.97
35878;BME280;21982;49.804;24.072;2023-03-20T09:05:44;97236.69;;;18.21;33.57
35878;BME280;21982;49.804;24.072;2023-03-20T09:08:10;97223.81;;;17.94;33.63
35878;BME280;21982;49.804;24.072;2023-03-20T09:10:36;97192.41;;;17.55;33.61
35878;BME280;21982;49.804;24.072;2023-03-20T09:13:01;97076.69;;;17.01;34.19
35878;BME280;21982;49.804;24.072;2023-03-20T09:15:27;97150.28;;;17.62;33.46
35878;BME280;21982;49.804;24.072;2023-03-20T09:17:52;97068.66;;;17.01;33.52
35878;BME280;21982;49.804;24.072;2023-03-20T09:20:18;97216.75;;;18.17;33.25
35878;BME280;21982;49.804;24.072;2023-03-20T09:22:43;97019.84;;;16.70;33.70
35878;BME280;21982;49.804;24.072;2023-03-20T09:25:10;97218.97;;;18.20;33.54
35878;BME280;21982;49.804;24.072;2023-03-20T09:27:36;97084.16;;;17.51;33.30
35878;BME280;21982;49.804;24.072;2023-03-20T09:30:02;97132.63;;;18.18;32.52
35878;BME280;21982;49.804;24.072;2023-03-20T09:32:28;97188.50;;;18.83;32.46
35878;BME280;21982;49.804;24.072;2023-03-20T09:34:53;97209.06;;;19.27;32.23
35878;BME280;21982;49.804;24.072;2023-03-20T09:37:19;97211.25;;;19.64;31.89
35878;BME280;21982;49.804;24.072;2023-03-20T09:39:45;97158.63;;;19.68;31.51
35878;BME280;21982;49.804;24.072;2023-03-20T09:53:48;97024.38;;;19.29;29.43
35878;BME280;21982;49.804;24.072;2023-03-20T09:56:21;97122.72;;;19.74;29.88
35878;BME280;21982;49.804;24.072;2023-03-20T09:58:53;96964.00;;;19.10;29.08
35878;BME280;21982;49.804;24.072;2023-03-20T10:01:23;97198.03;;;20.50;29.17
35878;BME280;21982;49.804;24.072;2023-03-20T10:03:59;96986.94;;;18.96;29.45
35878;BME280;21982;49.804;24.072;2023-03-20T10:06:28;97112.22;;;19.72;29.55
35878;BME280;21982;49.804;24.072;2023-03-20T10:08:53;97180.03;;;20.28;29.68
35878;BME280;21982;49.804;24.072;2023-03-20T10:19:31;97113.38;;;21.31;28.54
35878;BME280;21982;49.804;24.072;2023-03-20T10:25:23;97201.72;;;20.97;28.85
35878;BME280;21982;49.804;24.072;2023-03-20T10:27:59;96988.66;;;19.51;29.51
35878;BME280;21982;49.804;24.072;2023-03-20T10:30:41;97189.66;;;21.05;29.32
35878;BME280;21982;49.804;24.072;2023-03-20T10:41:23;97155.22;;;22.01;27.75
35878;BME280;21982;49.804;24.072;2023-03-20T10:43:51;97122.38;;;22.15;27.32
35878;BME280;21982;49.804;24.072;2023-03-20T10:46:25;97180.75;;;23.37;26.84
35878;BME280;21982;49.804;24.072;2023-03-20T10:48:57;97180.72;;;23.63;25.99
35878;BME280;21982;49.804;24.072;2023-03-20T10:51:52;97185.59;;;23.66;26.34
35878;BME280;21982;49.804;24.072;2023-03-20T10:54:30;97184.00;;;24.29;25.70
35878;BME280;21982;49.804;24.072;2023-03-20T10:57:05;96870.13;;;22.53;25.72
35878;BME280;21982;49.804;24.072;2023-03-20T10:59:41;97184.28;;;24.77;24.87
35878;BME280;21982;49.804;24.072;2023-03-20T11:02:27;97119.03;;;24.34;24.97
35878;BME280;21982;49.804;24.072;2023-03-20T11:05:19;97119.09;;;24.24;24.80
35878;BME280;21982;49.804;24.072;2023-03-20T11:08:22;97184.06;;;24.19;24.52
35878;BME280;21982;49.804;24.072;2023-03-20T11:10:58;97099.69;;;23.43;25.07
35878;BME280;21982;49.804;24.072;2023-03-20T11:13:29;97038.22;;;22.73;25.26
35878;BME280;21982;49.804;24.072;2023-03-20T11:16:07;97172.41;;;23.24;25.65
35878;BME280;21982;49.804;24.072;2023-03-20T11:21:36;97168.31;;;22.65;26.39
35878;BME280;21982;49.804;24.072;2023-03-20T11:24:34;97171.41;;;22.01;26.38
35878;BME280;21982;49.804;24.072;2023-03-20T11:27:16;97174.19;;;22.17;26.98
35878;BME280;21982;49.804;24.072;2023-03-20T11:29:47;97054.84;;;21.84;26.46
35878;BME280;21982;49.804;24.072;2023-03-20T11:32:40;97143.00;;;22.87;26.26
35878;BME280;21982;49.804;24.072;2023-03-20T11:37:53;97108.16;;;23.00;25.94
35878;BME280;21982;49.804;24.072;2023-03-20T11:40:32;97098.41;;;22.44;25.92
35878;BME280;21982;49.804;24.072;2023-03-20T11:45:52;96990.56;;;21.30;26.55
35878;BME280;21982;49.804;24.072;2023-03-20T11:48:18;96480.94;;;17.89;26.67
35878;BME280;21982;49.804;24.072;2023-03-20T11:51:14;97144.50;;;22.17;26.64
35878;BME280;21982;49.804;24.072;2023-03-20T11:56:36;97156.91;;;22.13;26.30
35878;BME280;21982;49.804;24.072;2023-03-20T12:01:58;96960.78;;;21.88;25.71
35878;BME280;21982;49.804;24.072;2023-03-20T12:04:34;97122.91;;;23.59;25.21
35878;BME280;21982;49.804;24.072;2023-03-20T12:07:18;97120.94;;;23.80;26.49
35878;BME280;21982;49.804;24.072;2023-03-20T12:10:04;96980.72;;;23.58;25.10
35878;BME280;21982;49.804;24.072;2023-03-20T12:12:44;97064.16;;;24.24;24.42
35878;BME280;21982;49.804;24.072;2023-03-20T12:20:37;97124.13;;;24.46;24.72
35878;BME280;21982;49.804;24.072;2023-03-20T12:26:11;97094.44;;;24.31;24.87
35878;BME280;21982;49.804;24.072;2023-03-20T12:36:40;97106.69;;;23.49;25.38
35878;BME280;21982;49.804;24.072;2023-03-20T12:39:37;96999.16;;;23.40;24.86
35878;BME280;21982;49.804;24.072;2023-03-20T12:42:23;96974.13;;;23.79;24.84
35878;BME280;21982;49.804;24.072;2023-03-20T12:58:55;97068.31;;;25.61;23.89
35878;BME280;21982;49.804;24.072;2023-03-20T13:04:54;97087.84;;;24.47;24.32
35878;BME280;21982;49.804;24.072;2023-03-20T13:07:46;96612.50;;;20.76;24.57
35878;BME280;21982;49.804;24.072;2023-03-20T13:10:18;97074.03;;;23.40;25.08
35878;BME280;21982;49.804;24.072;2023-03-20T13:27:17;96944.94;;;22.12;26.07
35878;BME280;21982;49.804;24.072;2023-03-20T13:30:06;96506.25;;;19.24;25.98
35878;BME280;21982;49.804;24.072;2023-03-20T13:35:35;97071.50;;;21.61;26.73
35878;BME280;21982;49.804;24.072;2023-03-20T13:38:13;97054.22;;;21.57;26.75
35878;BME280;21982;49.804;24.072;2023-03-20T13:40:42;96881.72;;;20.54;27.02
35878;BME280;21982;49.804;24.072;2023-03-20T13:43:37;97046.66;;;21.49;27.30
35878;BME280;21982;49.804;24.072;2023-03-20T13:46:10;97009.72;;;20.87;27.12
35878;BME280;21982;49.804;24.072;2023-03-20T13:48:41;96870.66;;;19.66;27.33
35878;BME280;21982;49.804;24.072;2023-03-20T13:54:06;97050.31;;;20.80;27.33
35878;BME280;21982;49.804;24.072;2023-03-20T13:56:58;96852.19;;;19.74;27.41
35878;BME280;21982;49.804;24.072;2023-03-20T13:59:45;97034.16;;;20.75;27.46
35878;BME280;21982;49.804;24.072;2023-03-20T14:02:32;97033.09;;;20.81;27.46
35878;BME280;21982;49.804;24.072;2023-03-20T14:23:50;96792.72;;;18.09;28.58
35878;BME280;21982;49.804;24.072;2023-03-20T14:26:25;97027.56;;;19.48;29.20
35878;BME280;21982;49.804;24.072;2023-03-20T14:31:32;96801.53;;;17.21;29.86
35878;BME280;21982;49.804;24.072;2023-03-20T14:48:01;97023.75;;;17.83;31.11
35878;BME280;21982;49.804;24.072;2023-03-20T14:50:38;97022.31;;;17.92;30.88
35878;BME280;21982;49.804;24.072;2023-03-20T14:56:08;96890.44;;;16.83;31.13
35878;BME280;21982;49.804;24.072;2023-03-20T15:06:21;97019.56;;;17.07;31.71
35878;BME280;21982;49.804;24.072;2023-03-20T15:08:59;96910.16;;;16.42;31.57
35878;BME280;21982;49.804;24.072;2023-03-20T15:11:26;96939.06;;;16.68;31.29
35878;BME280;21982;49.804;24.072;2023-03-20T15:13:52;96878.66;;;16.32;31.72
35878;BME280;21982;49.804;24.072;2023-03-20T15:16:30;96918.38;;;16.75;31.36
35878;BME280;21982;49.804;24.072;2023-03-20T15:18:55;97017.81;;;17.24;31.54
35878;BME280;21982;49.804;24.072;2023-03-20T15:21:38;96872.50;;;16.32;31.65
35878;BME280;21982;49.804;24.072;2023-03-20T15:24:06;96965.44;;;16.77;31.79
35878;BME280;21982;49.804;24.072;2023-03-20T15:26:33;97017.81;;;17.13;31.83
35878;BME280;21982;49.804;24.072;2023-03-20T15:29:05;96877.53;;;16.28;31.57
35878;BME280;21982;49.804;24.072;2023-03-20T15:31:36;97027.38;;;17.08;31.58
35878;BME280;21982;49.804;24.072;2023-03-20T15:34:06;96949.19;;;16.43;31.57
35878;BME280;21982;49.804;24.072;2023-03-20T15:36:34;96978.34;;;16.56;31.72
35878;BME280;21982;49.804;24.072;2023-03-20T15:39:15;96970.09;;;16.46;31.60
35878;BME280;21982;49.804;24.072;2023-03-20T15:44:32;97014.63;;;16.75;31.89
35878;BME280;21982;49.804;24.072;2023-03-20T15:47:20;96885.66;;;15.98;31.70
35878;BME280;21982;49.804;24.072;2023-03-20T15:49:55;97002.41;;;16.68;31.71
35878;BME280;21982;49.804;24.072;2023-03-20T15:54:57;96953.84;;;16.36;31.85
35878;BME280;21982;49.804;24.072;2023-03-20T15:57:34;97010.22;;;16.69;31.69
35878;BME280;21982;49.804;24.072;2023-03-20T16:00:03;96933.38;;;15.95;32.02
35878;BME280;21982;49.804;24.072;2023-03-20T16:02:29;96946.03;;;15.88;32.08
35878;BME280;21982;49.804;24.072;2023-03-20T16:04:54;96983.56;;;16.04;32.27
35878;BME280;21982;49.804;24.072;2023-03-20T16:07:26;97028.75;;;16.29;32.33
35878;BME280;21982;49.804;24.072;2023-03-20T16:09:52;97005.03;;;16.09;32.43